Time;durP1;ratioP1;P1;durP2;ratioP2;P2;SDS_P1;SDS_P2;PMS_P1;PMS_P2;Temp;Humidity;BMP_temperature;BMP_pressure;BME280_temperature;BME280_humidity;BME280_pressure;Samples;Min_cycle;Max_cycle;Signal;HPM_P1;HPM_P2
2022/04/24 00:02:20;;;;;;;5.07;3.00;;;;;;;;;;5007936;28;20022;-68
2022/04/24 00:04:45;;;;;;;4.30;2.97;;;;;;;;;;5010983;28;20307;-68
2022/04/24 00:07:10;;;;;;;3.40;2.83;;;;;;;;;;5012288;28;20383;-68
2022/04/24 00:09:37;;;;;;;5.07;3.15;;;;;;;;;;5011800;28;20269;-68
2022/04/24 00:12:03;;;;;;;5.43;3.33;;;;;;;;;;5012239;28;20083;-70
2022/04/24 00:14:28;;;;;;;4.25;2.60;;;;;;;;;;5011531;28;20462;-70
2022/04/24 00:16:53;;;;;;;6.10;3.00;;;;;;;;;;5011751;28;20521;-68
2022/04/24 00:19:19;;;;;;;5.88;3.60;;;;;;;;;;5010441;28;20277;-68
2022/04/24 00:21:44;;;;;;;5.35;3.47;;;;;;;;;;5011888;28;20458;-68
2022/04/24 00:24:10;;;;;;;5.57;3.03;;;;;;;;;;5010956;28;20057;-68
2022/04/24 00:26:35;;;;;;;8.25;3.17;;;;;;;;;;4994197;28;20032;-73
2022/04/24 00:29:00;;;;;;;3.90;2.95;;;;;;;;;;5010989;28;20951;-67
2022/04/24 00:31:25;;;;;;;4.40;3.05;;;;;;;;;;4994165;28;20097;-68
2022/04/24 00:33:50;;;;;;;4.93;3.40;;;;;;;;;;5011253;28;20022;-68
2022/04/24 00:36:16;;;;;;;7.57;3.27;;;;;;;;;;5010639;28;20808;-68
2022/04/24 00:38:41;;;;;;;4.85;3.35;;;;;;;;;;5010700;28;20268;-69
2022/04/24 00:41:06;;;;;;;7.23;3.53;;;;;;;;;;5011865;28;20018;-68
2022/04/24 00:43:31;;;;;;;6.07;3.70;;;;;;;;;;5011030;28;20327;-69
2022/04/24 00:46:10;;;;;;;5.55;3.83;;;;;;;;;;5011527;28;20276;-68
2022/04/24 00:48:35;;;;;;;6.50;3.50;;;;;;;;;;5010666;28;20025;-70
2022/04/24 00:51:00;;;;;;;6.55;4.30;;;;;;;;;;5011605;28;20105;-68
2022/04/24 00:53:25;;;;;;;7.13;3.27;;;;;;;;;;5010488;28;20069;-71
2022/04/24 00:55:51;;;;;;;5.50;3.40;;;;;;;;;;5011472;28;20364;-67
2022/04/24 00:58:16;;;;;;;4.97;3.08;;;;;;;;;;5010741;28;20269;-67
2022/04/24 01:00:42;;;;;;;7.45;3.70;;;;;;;;;;4993727;28;20022;-70
2022/04/24 01:03:07;;;;;;;7.32;3.60;;;;;;;;;;4993103;28;20017;-68
2022/04/24 01:05:32;;;;;;;5.57;3.47;;;;;;;;;;5010458;28;20022;-68
2022/04/24 01:07:58;;;;;;;3.88;2.90;;;;;;;;;;5010918;28;20025;-67
2022/04/24 01:10:23;;;;;;;12.55;3.72;;;;;;;;;;5010537;28;20474;-69
2022/04/24 01:12:48;;;;;;;7.80;3.90;;;;;;;;;;5010950;28;20042;-70
2022/04/24 01:15:13;;;;;;;5.43;3.73;;;;;;;;;;5010213;28;20045;-69
2022/04/24 01:17:39;;;;;;;5.85;3.47;;;;;;;;;;5010747;28;20260;-68
2022/04/24 01:20:04;;;;;;;6.15;4.15;;;;;;;;;;5010937;28;20113;-71
2022/04/24 01:22:30;;;;;;;7.40;3.67;;;;;;;;;;5009910;28;20021;-68
2022/04/24 01:24:55;;;;;;;4.20;3.22;;;;;;;;;;5007459;28;20096;-68
2022/04/24 01:27:20;;;;;;;7.57;3.65;;;;;;;;;;5010488;28;20113;-68
2022/04/24 01:29:45;;;;;;;8.20;4.17;;;;;;;;;;5009970;28;20025;-68
2022/04/24 01:32:10;;;;;;;10.07;4.13;;;;;;;;;;5010914;28;20769;-67
2022/04/24 01:34:35;;;;;;;4.47;3.10;;;;;;;;;;5009861;28;20029;-68
2022/04/24 01:37:01;;;;;;;7.73;3.83;;;;;;;;;;5010394;28;20261;-67
2022/04/24 01:39:26;;;;;;;6.57;3.67;;;;;;;;;;5010078;28;20880;-68
2022/04/24 01:41:51;;;;;;;5.65;3.70;;;;;;;;;;4993356;28;20100;-67
2022/04/24 01:44:17;;;;;;;9.32;3.95;;;;;;;;;;5009794;28;20022;-68
2022/04/24 01:46:42;;;;;;;7.28;4.20;;;;;;;;;;5013412;28;20022;-67
2022/04/24 01:49:07;;;;;;;7.73;4.03;;;;;;;;;;5016184;28;20093;-67
2022/04/24 01:51:32;;;;;;;6.77;3.80;;;;;;;;;;5017097;28;20730;-68
2022/04/24 01:53:58;;;;;;;8.83;4.47;;;;;;;;;;5016004;28;20284;-70
2022/04/24 01:56:23;;;;;;;6.60;3.87;;;;;;;;;;5016971;28;20368;-68
2022/04/24 01:58:48;;;;;;;5.38;3.88;;;;;;;;;;5016205;28;20276;-68
2022/04/24 02:01:13;;;;;;;12.35;3.50;;;;;;;;;;5017097;28;20445;-67
2022/04/24 02:03:39;;;;;;;5.70;3.58;;;;;;;;;;5015836;28;20018;-68
2022/04/24 02:06:04;;;;;;;6.78;3.95;;;;;;;;;;5016373;28;20443;-68
2022/04/24 02:08:31;;;;;;;7.70;4.60;;;;;;;;;;5016294;28;20041;-69
2022/04/24 02:10:57;;;;;;;6.28;3.90;;;;;;;;;;5016845;28;20422;-68
2022/04/24 02:13:22;;;;;;;8.30;4.18;;;;;;;;;;5016499;28;20014;-69
2022/04/24 02:18:50;;;;;;;5.90;3.78;;;;;;;;;;5001338;28;20029;-67
2022/04/24 02:21:15;;;;;;;7.40;4.20;;;;;;;;;;5016309;28;20030;-68
2022/04/24 02:23:40;;;;;;;7.68;4.05;;;;;;;;;;5016723;28;20649;-67
2022/04/24 02:26:05;;;;;;;6.63;4.00;;;;;;;;;;4997731;28;20029;-68
2022/04/24 02:28:30;;;;;;;4.90;3.77;;;;;;;;;;5015131;28;20277;-68
2022/04/24 02:30:56;;;;;;;6.50;4.07;;;;;;;;;;5016652;28;20257;-70
2022/04/24 02:33:21;;;;;;;8.05;4.65;;;;;;;;;;5015995;28;20028;-71
2022/04/24 02:35:46;;;;;;;7.60;4.40;;;;;;;;;;5016730;28;20030;-70
2022/04/24 02:38:11;;;;;;;6.88;4.22;;;;;;;;;;5015817;28;20304;-69
2022/04/24 02:40:37;;;;;;;6.78;4.22;;;;;;;;;;5016709;28;20030;-71
2022/04/24 02:43:03;;;;;;;13.93;4.32;;;;;;;;;;5016179;28;20115;-71
2022/04/24 02:45:28;;;;;;;6.75;4.68;;;;;;;;;;5016362;28;20053;-71
2022/04/24 02:47:53;;;;;;;5.70;3.77;;;;;;;;;;5016022;28;20072;-70
2022/04/24 02:50:18;;;;;;;6.35;4.00;;;;;;;;;;5016703;28;20359;-70
2022/04/24 02:52:54;;;;;;;7.15;4.13;;;;;;;;;;5015324;28;20037;-70
2022/04/24 02:55:20;;;;;;;6.32;4.63;;;;;;;;;;5016546;28;20025;-71
2022/04/24 02:57:46;;;;;;;7.72;4.13;;;;;;;;;;5014431;28;20022;-71
2022/04/24 03:00:12;;;;;;;8.50;4.60;;;;;;;;;;5013516;28;20028;-70
2022/04/24 03:02:44;;;;;;;7.72;4.15;;;;;;;;;;5012666;28;20022;-71
2022/04/24 03:05:14;;;;;;;8.13;5.20;;;;;;;;;;5013260;28;20096;-71
2022/04/24 03:07:39;;;;;;;5.78;4.15;;;;;;;;;;5012589;28;20395;-71
2022/04/24 03:10:04;;;;;;;6.90;4.65;;;;;;;;;;5013507;28;20024;-69
2022/04/24 03:12:30;;;;;;;7.15;4.45;;;;;;;;;;5012391;28;20022;-70
2022/04/24 03:14:55;;;;;;;11.35;5.10;;;;;;;;;;5013136;28;20018;-69
2022/04/24 03:17:20;;;;;;;10.60;4.50;;;;;;;;;;4995421;28;20113;-70
2022/04/24 03:19:45;;;;;;;6.32;4.50;;;;;;;;;;5013133;28;20025;-71
2022/04/24 03:22:11;;;;;;;7.83;5.33;;;;;;;;;;5012388;28;20025;-69
2022/04/24 03:24:36;;;;;;;7.83;4.83;;;;;;;;;;5012997;28;20300;-71
2022/04/24 03:27:01;;;;;;;12.57;6.32;;;;;;;;;;5011700;28;20264;-70
2022/04/24 03:29:26;;;;;;;6.40;4.63;;;;;;;;;;5012370;28;20018;-70
2022/04/24 03:31:53;;;;;;;9.27;4.88;;;;;;;;;;5011659;28;20276;-71
2022/04/24 03:34:18;;;;;;;7.65;5.35;;;;;;;;;;5012731;28;20026;-70
2022/04/24 03:36:43;;;;;;;7.10;4.70;;;;;;;;;;5011787;28;20033;-71
2022/04/24 03:39:08;;;;;;;10.37;5.37;;;;;;;;;;5012447;28;20018;-71
2022/04/24 03:41:33;;;;;;;8.02;4.50;;;;;;;;;;5011905;28;20761;-69
2022/04/24 03:43:59;;;;;;;10.63;5.70;;;;;;;;;;5012674;28;20034;-70
2022/04/24 03:46:24;;;;;;;8.33;4.90;;;;;;;;;;5011403;28;20269;-69
2022/04/24 03:48:49;;;;;;;6.68;4.78;;;;;;;;;;5011543;28;20257;-71
2022/04/24 03:51:14;;;;;;;14.40;6.03;;;;;;;;;;5011794;28;20430;-71
2022/04/24 03:53:39;;;;;;;8.23;5.28;;;;;;;;;;5011477;28;20276;-67
2022/04/24 03:56:05;;;;;;;7.90;5.10;;;;;;;;;;5011562;28;20021;-70
2022/04/24 03:58:30;;;;;;;8.70;4.87;;;;;;;;;;5010308;28;20713;-70
2022/04/24 04:00:55;;;;;;;8.30;5.50;;;;;;;;;;5012298;28;20272;-71
2022/04/24 04:03:20;;;;;;;10.90;5.23;;;;;;;;;;5011592;28;20276;-68
2022/04/24 04:05:46;;;;;;;7.53;5.10;;;;;;;;;;5012084;28;20375;-70
2022/04/24 04:08:11;;;;;;;8.50;6.05;;;;;;;;;;5011574;28;20319;-70
2022/04/24 04:10:36;;;;;;;7.35;4.80;;;;;;;;;;5010670;28;20025;-71
2022/04/24 04:13:04;;;;;;;8.30;5.40;;;;;;;;;;5011410;28;20026;-70
2022/04/24 04:15:30;;;;;;;8.35;4.90;;;;;;;;;;5011925;28;20253;-70
2022/04/24 04:17:55;;;;;;;8.77;5.57;;;;;;;;;;5011148;28;20017;-69
2022/04/24 04:20:20;;;;;;;7.60;5.63;;;;;;;;;;5012043;28;20291;-70
2022/04/24 04:22:48;;;;;;;7.53;5.23;;;;;;;;;;5011134;28;20275;-70
2022/04/24 04:25:13;;;;;;;9.13;5.43;;;;;;;;;;5010872;28;20288;-67
2022/04/24 04:27:38;;;;;;;8.57;5.33;;;;;;;;;;5010263;28;20014;-68
2022/04/24 04:30:03;;;;;;;10.60;5.50;;;;;;;;;;5011824;28;20817;-67
2022/04/24 04:32:28;;;;;;;8.57;5.35;;;;;;;;;;5011304;28;20332;-68
2022/04/24 04:34:54;;;;;;;12.13;6.13;;;;;;;;;;5011279;28;20382;-69
2022/04/24 04:37:19;;;;;;;10.07;5.95;;;;;;;;;;5010718;28;20288;-69
2022/04/24 04:39:44;;;;;;;11.60;5.50;;;;;;;;;;5011164;28;20076;-67
2022/04/24 04:42:09;;;;;;;9.98;5.57;;;;;;;;;;5011888;28;20599;-67
2022/04/24 04:44:35;;;;;;;7.80;5.53;;;;;;;;;;5010291;28;20386;-67
2022/04/24 04:47:00;;;;;;;8.27;5.83;;;;;;;;;;5011942;28;20025;-72
2022/04/24 04:49:25;;;;;;;9.90;5.40;;;;;;;;;;5010595;28;20261;-68
2022/04/24 04:51:52;;;;;;;11.13;6.00;;;;;;;;;;5010452;28;20026;-68
2022/04/24 04:54:18;;;;;;;8.45;5.72;;;;;;;;;;5010046;28;20112;-67
2022/04/24 04:56:43;;;;;;;8.68;5.53;;;;;;;;;;5011290;28;20108;-68
2022/04/24 04:59:08;;;;;;;9.07;5.68;;;;;;;;;;5009983;28;20075;-68
2022/04/24 05:01:33;;;;;;;8.53;5.73;;;;;;;;;;5011273;28;20033;-69
2022/04/24 05:03:58;;;;;;;8.75;5.80;;;;;;;;;;5010111;28;20292;-69
2022/04/24 05:06:24;;;;;;;11.85;6.25;;;;;;;;;;5010849;28;20439;-70
2022/04/24 05:08:49;;;;;;;9.23;6.53;;;;;;;;;;5010814;28;20018;-67
2022/04/24 05:11:14;;;;;;;8.90;5.73;;;;;;;;;;5010833;28;20022;-68
2022/04/24 05:13:39;;;;;;;9.67;6.40;;;;;;;;;;5010422;28;20419;-68
2022/04/24 05:16:05;;;;;;;12.47;7.10;;;;;;;;;;5011079;28;20271;-67
2022/04/24 05:18:30;;;;;;;9.27;6.10;;;;;;;;;;5009958;28;20276;-67
2022/04/24 05:20:56;;;;;;;8.70;6.23;;;;;;;;;;5010624;28;20069;-70
2022/04/24 05:23:21;;;;;;;11.68;6.72;;;;;;;;;;5010084;28;20276;-69
2022/04/24 05:25:46;;;;;;;9.23;6.30;;;;;;;;;;5009989;28;20014;-67
2022/04/24 05:28:11;;;;;;;8.75;6.30;;;;;;;;;;5010764;28;20022;-67
2022/04/24 05:30:37;;;;;;;9.52;5.97;;;;;;;;;;4999586;28;20186;-68
2022/04/24 05:33:02;;;;;;;11.95;7.20;;;;;;;;;;5009510;28;20022;-70
2022/04/24 05:35:27;;;;;;;18.15;6.60;;;;;;;;;;5009741;28;20029;-70
2022/04/24 05:37:53;;;;;;;12.27;6.57;;;;;;;;;;5010010;28;20542;-67
2022/04/24 05:40:18;;;;;;;15.02;8.05;;;;;;;;;;5009895;28;20557;-69
2022/04/24 05:42:51;;;;;;;12.63;7.10;;;;;;;;;;5010834;28;20022;-67
2022/04/24 05:45:18;;;;;;;10.50;6.00;;;;;;;;;;5009571;28;20518;-69
2022/04/24 05:47:44;;;;;;;8.50;6.00;;;;;;;;;;5010551;28;20355;-70
2022/04/24 05:50:09;;;;;;;9.65;6.40;;;;;;;;;;5010016;28;20021;-70
2022/04/24 05:52:34;;;;;;;13.00;7.40;;;;;;;;;;5009551;28;20064;-69
2022/04/24 05:54:59;;;;;;;10.13;6.90;;;;;;;;;;5010491;28;20026;-70
2022/04/24 05:57:24;;;;;;;12.77;6.47;;;;;;;;;;5009873;28;20021;-70
2022/04/24 05:59:50;;;;;;;9.70;6.37;;;;;;;;;;5010452;28;20385;-69
2022/04/24 06:02:15;;;;;;;10.77;6.50;;;;;;;;;;5009595;28;20253;-70
2022/04/24 06:04:40;;;;;;;10.25;6.80;;;;;;;;;;5009717;28;20274;-69
2022/04/24 06:07:05;;;;;;;11.37;6.47;;;;;;;;;;5009562;28;20065;-71
2022/04/24 06:09:30;;;;;;;9.20;6.30;;;;;;;;;;5009370;28;20280;-69
2022/04/24 06:11:58;;;;;;;10.65;6.45;;;;;;;;;;5009581;28;20265;-70
2022/04/24 06:14:24;;;;;;;11.63;6.53;;;;;;;;;;5008996;28;20032;-69
2022/04/24 06:16:49;;;;;;;10.23;6.88;;;;;;;;;;5010295;28;20371;-70
2022/04/24 06:19:14;;;;;;;9.27;6.47;;;;;;;;;;5010517;28;20032;-71
2022/04/24 06:21:39;;;;;;;12.30;6.50;;;;;;;;;;5010820;28;20257;-70
2022/04/24 06:24:05;;;;;;;11.17;6.70;;;;;;;;;;5010542;28;20380;-71
2022/04/24 06:26:31;;;;;;;9.80;6.28;;;;;;;;;;5010441;28;20263;-68
2022/04/24 06:28:56;;;;;;;11.30;5.63;;;;;;;;;;5010206;28;20076;-69
2022/04/24 06:31:21;;;;;;;10.87;6.40;;;;;;;;;;5010532;28;20463;-68
2022/04/24 06:33:46;;;;;;;9.33;6.50;;;;;;;;;;5011562;28;20276;-69
2022/04/24 06:36:11;;;;;;;9.33;6.27;;;;;;;;;;5013986;28;20431;-68
2022/04/24 06:38:37;;;;;;;11.10;6.27;;;;;;;;;;5013822;28;20288;-69
2022/04/24 06:41:02;;;;;;;9.02;6.38;;;;;;;;;;5014244;28;20256;-70
2022/04/24 06:43:27;;;;;;;13.18;6.63;;;;;;;;;;5013830;28;20548;-67
2022/04/24 06:45:52;;;;;;;9.25;6.82;;;;;;;;;;5013870;28;20026;-67
2022/04/24 06:48:18;;;;;;;8.98;6.60;;;;;;;;;;5013453;28;20505;-68
2022/04/24 06:50:44;;;;;;;12.85;6.35;;;;;;;;;;5013969;28;20390;-68
2022/04/24 06:53:10;;;;;;;8.48;5.75;;;;;;;;;;5013783;28;20042;-68
2022/04/24 06:55:37;;;;;;;9.68;6.32;;;;;;;;;;5010709;28;20112;-68
2022/04/24 06:58:03;;;;;;;10.05;6.00;;;;;;;;;;5009238;28;20025;-69
2022/04/24 07:00:29;;;;;;;11.77;6.53;;;;;;;;;;5010540;28;20024;-71
2022/04/24 07:02:54;;;;;;;10.25;6.30;;;;;;;;;;5009247;28;20022;-70
2022/04/24 07:05:21;;;;;;;9.15;7.15;;;;;;;;;;5008691;28;20080;-68
2022/04/24 07:07:46;;;;;;;8.07;5.72;;;;;;;;;;4993318;28;20459;-70
2022/04/24 07:10:11;;;;;;;9.00;5.53;;;;;;;;;;5011949;28;20026;-68
2022/04/24 07:12:47;;;;;;;11.18;6.60;;;;;;;;;;5013322;28;20260;-69
2022/04/24 07:15:13;;;;;;;9.77;5.90;;;;;;;;;;5007203;28;20394;-68
2022/04/24 07:17:38;;;;;;;7.60;5.90;;;;;;;;;;5009142;28;20018;-68
2022/04/24 07:20:04;;;;;;;8.88;6.00;;;;;;;;;;4987040;28;20025;-68
2022/04/24 07:22:39;;;;;;;9.02;6.43;;;;;;;;;;5007688;28;20030;-69
2022/04/24 07:25:05;;;;;;;8.82;6.18;;;;;;;;;;5011987;28;20034;-68
2022/04/24 07:27:30;;;;;;;8.20;5.85;;;;;;;;;;5012678;28;20069;-69
2022/04/24 07:29:55;;;;;;;8.77;6.27;;;;;;;;;;5012803;28;20033;-67
2022/04/24 07:32:20;;;;;;;14.02;6.85;;;;;;;;;;5009653;28;20757;-68
2022/04/24 07:34:47;;;;;;;8.30;5.80;;;;;;;;;;5012399;28;20320;-67
2022/04/24 07:37:12;;;;;;;8.50;5.60;;;;;;;;;;5011511;28;20060;-68
2022/04/24 07:39:37;;;;;;;11.32;5.82;;;;;;;;;;5011582;28;20053;-67
2022/04/24 07:42:02;;;;;;;8.70;5.77;;;;;;;;;;5006747;28;20018;-70
2022/04/24 07:44:28;;;;;;;12.75;6.57;;;;;;;;;;5005988;28;20284;-68
2022/04/24 07:46:53;;;;;;;12.52;6.15;;;;;;;;;;5006616;28;20010;-69
2022/04/24 07:49:18;;;;;;;11.13;6.97;;;;;;;;;;5010863;28;20025;-68
2022/04/24 07:51:43;;;;;;;9.40;6.10;;;;;;;;;;5010674;28;20295;-68
2022/04/24 07:54:08;;;;;;;10.50;6.57;;;;;;;;;;5009507;28;20292;-67
2022/04/24 07:56:34;;;;;;;7.73;5.73;;;;;;;;;;5008153;28;20265;-71
2022/04/24 07:58:59;;;;;;;7.90;5.72;;;;;;;;;;5009175;28;20415;-70
2022/04/24 08:01:24;;;;;;;9.53;5.90;;;;;;;;;;5010738;28;20495;-68
2022/04/24 08:03:49;;;;;;;8.20;6.00;;;;;;;;;;5012179;28;20248;-69
2022/04/24 08:06:15;;;;;;;10.33;6.17;;;;;;;;;;5010326;28;20650;-69
2022/04/24 08:08:40;;;;;;;10.30;6.30;;;;;;;;;;5009515;28;20249;-71
2022/04/24 08:11:06;;;;;;;9.02;6.00;;;;;;;;;;5008326;28;20029;-68
2022/04/24 08:13:31;;;;;;;9.50;5.83;;;;;;;;;;5007124;28;20026;-68
2022/04/24 08:15:57;;;;;;;9.82;6.68;;;;;;;;;;5010196;28;20323;-68
2022/04/24 08:18:23;;;;;;;8.90;5.95;;;;;;;;;;5010484;28;20030;-68
2022/04/24 08:20:48;;;;;;;11.13;7.50;;;;;;;;;;5007863;28;20352;-68
2022/04/24 08:23:17;;;;;;;14.63;7.03;;;;;;;;;;5010376;28;20541;-70
2022/04/24 08:25:42;;;;;;;8.15;5.90;;;;;;;;;;5007931;28;20105;-71
2022/04/24 08:28:09;;;;;;;10.10;6.93;;;;;;;;;;5006898;28;20097;-70
2022/04/24 08:30:35;;;;;;;9.90;6.80;;;;;;;;;;5007179;28;20083;-70
2022/04/24 08:33:00;;;;;;;10.25;6.43;;;;;;;;;;5011700;28;20018;-71
2022/04/24 08:35:26;;;;;;;11.70;6.97;;;;;;;;;;5009208;28;20099;-66
2022/04/24 08:37:51;;;;;;;10.25;6.63;;;;;;;;;;5010262;28;20021;-70
2022/04/24 08:40:18;;;;;;;13.77;6.90;;;;;;;;;;5011054;28;20022;-69
2022/04/24 08:42:43;;;;;;;11.02;7.15;;;;;;;;;;5010282;28;20014;-70
2022/04/24 08:45:10;;;;;;;9.85;6.53;;;;;;;;;;5007335;28;20025;-68
2022/04/24 08:47:35;;;;;;;11.30;6.13;;;;;;;;;;5004301;28;20080;-71
2022/04/24 08:50:01;;;;;;;8.52;5.78;;;;;;;;;;5009429;28;20030;-68
2022/04/24 08:52:27;;;;;;;11.95;6.35;;;;;;;;;;5007837;28;20061;-69
2022/04/24 08:54:52;;;;;;;10.63;6.60;;;;;;;;;;5009850;28;20021;-68
2022/04/24 08:57:18;;;;;;;16.48;6.20;;;;;;;;;;5006893;28;20017;-69
2022/04/24 08:59:43;;;;;;;10.52;6.28;;;;;;;;;;5008696;28;20018;-71
2022/04/24 09:02:09;;;;;;;14.52;6.60;;;;;;;;;;5008067;28;20398;-69
2022/04/24 09:04:35;;;;;;;17.02;7.10;;;;;;;;;;5008228;28;20038;-69
2022/04/24 09:07:01;;;;;;;11.05;6.35;;;;;;;;;;5007401;28;20023;-69
2022/04/24 09:09:27;;;;;;;11.05;7.20;;;;;;;;;;5009125;28;20538;-70
2022/04/24 09:11:52;;;;;;;11.02;6.90;;;;;;;;;;5009398;28;20030;-68
2022/04/24 09:14:19;;;;;;;12.85;6.88;;;;;;;;;;5006674;28;20029;-70
2022/04/24 09:16:49;;;;;;;14.13;6.40;;;;;;;;;;5007810;28;20032;-69
2022/04/24 09:19:24;;;;;;;10.98;6.97;;;;;;;;;;5008438;28;20045;-69
2022/04/24 09:21:50;;;;;;;13.48;6.63;;;;;;;;;;5005379;28;20100;-72
2022/04/24 09:24:16;;;;;;;8.85;6.30;;;;;;;;;;5001575;28;20061;-71
2022/04/24 09:26:55;;;;;;;10.88;6.75;;;;;;;;;;5008382;28;20037;-69
2022/04/24 09:29:21;;;;;;;21.80;6.60;;;;;;;;;;5007964;28;20075;-71
2022/04/24 09:31:49;;;;;;;13.15;6.63;;;;;;;;;;5009752;28;20021;-70
2022/04/24 09:34:16;;;;;;;9.25;6.38;;;;;;;;;;5009693;28;20397;-71
2022/04/24 09:36:42;;;;;;;10.98;6.95;;;;;;;;;;5009887;28;20051;-69
2022/04/24 09:39:07;;;;;;;10.40;6.50;;;;;;;;;;5004655;28;20096;-73
2022/04/24 09:41:32;;;;;;;8.63;5.97;;;;;;;;;;5008732;28;20021;-68
2022/04/24 09:43:57;;;;;;;15.30;7.53;;;;;;;;;;5009621;28;20281;-70
2022/04/24 09:46:23;;;;;;;10.23;6.67;;;;;;;;;;5005691;28;20387;-68
2022/04/24 09:48:52;;;;;;;11.15;6.82;;;;;;;;;;5007808;28;20122;-68
2022/04/24 09:51:18;;;;;;;10.48;6.93;;;;;;;;;;5006233;28;20041;-68
2022/04/24 09:53:44;;;;;;;13.85;6.70;;;;;;;;;;5008679;28;20423;-72
2022/04/24 09:56:10;;;;;;;13.05;6.97;;;;;;;;;;5006954;28;20018;-70
2022/04/24 09:58:37;;;;;;;14.65;7.20;;;;;;;;;;5008535;28;20022;-68
2022/04/24 10:01:04;;;;;;;12.15;6.80;;;;;;;;;;5006739;28;20022;-68
2022/04/24 10:03:29;;;;;;;10.00;7.00;;;;;;;;;;5009414;28;20514;-69
2022/04/24 10:05:55;;;;;;;10.60;6.68;;;;;;;;;;5008201;28;20070;-69
2022/04/24 10:08:20;;;;;;;12.98;6.85;;;;;;;;;;5010879;28;20018;-70
2022/04/24 10:10:46;;;;;;;12.23;6.93;;;;;;;;;;5012796;28;20097;-70
2022/04/24 10:13:12;;;;;;;11.68;7.80;;;;;;;;;;5013374;28;20499;-69
2022/04/24 10:15:43;;;;;;;10.45;6.90;;;;;;;;;;5010376;28;20079;-71
2022/04/24 10:18:08;;;;;;;10.43;7.53;;;;;;;;;;5012030;28;20486;-69
2022/04/24 10:20:48;;;;;;;10.90;7.47;;;;;;;;;;5010910;28;20026;-70
2022/04/24 10:23:13;;;;;;;;;;;;;;;;;;5009402;28;20030;-72
2022/04/24 10:25:40;;;;;;;11.20;6.82;;;;;;;;;;5010604;28;19914;-69
2022/04/24 10:28:09;;;;;;;8.80;6.50;;;;;;;;;;5013339;28;20026;-69
2022/04/24 10:30:35;;;;;;;8.25;6.40;;;;;;;;;;5013028;28;20474;-69
2022/04/24 10:33:21;;;;;;;10.15;6.65;;;;;;;;;;5013920;28;20021;-69
2022/04/24 10:35:50;;;;;;;13.38;6.18;;;;;;;;;;5012082;28;20383;-69
2022/04/24 10:38:17;;;;;;;10.00;5.82;;;;;;;;;;5013141;28;20113;-69
2022/04/24 10:40:42;;;;;;;10.32;6.53;;;;;;;;;;5012254;28;20537;-69
2022/04/24 10:43:08;;;;;;;12.30;6.93;;;;;;;;;;5013301;28;20029;-70
2022/04/24 10:45:43;;;;;;;11.38;7.63;;;;;;;;;;5010824;28;20018;-73
2022/04/24 10:48:13;;;;;;;10.73;7.10;;;;;;;;;;5011151;28;20082;-69
2022/04/24 10:50:45;;;;;;;12.98;6.78;;;;;;;;;;5012513;28;20478;-69
2022/04/24 10:53:10;;;;;;;7.90;6.15;;;;;;;;;;5011031;28;20498;-69
2022/04/24 10:55:36;;;;;;;9.23;6.85;;;;;;;;;;5009894;28;20029;-71
2022/04/24 10:58:03;;;;;;;11.30;7.93;;;;;;;;;;5006720;28;20065;-72
2022/04/24 11:00:34;;;;;;;12.50;6.72;;;;;;;;;;5011540;28;20025;-69
2022/04/24 11:03:08;;;;;;;14.20;8.02;;;;;;;;;;5003781;28;20026;-69
2022/04/24 11:05:38;;;;;;;11.10;6.75;;;;;;;;;;5011417;28;20104;-69
2022/04/24 11:08:04;;;;;;;10.50;6.35;;;;;;;;;;5026939;22;20046;-69
2022/04/24 11:10:29;;;;;;;13.93;7.07;;;;;;;;;;5016084;28;20378;-70
2022/04/24 11:12:56;;;;;;;13.35;6.50;;;;;;;;;;5015656;28;20010;-70
2022/04/24 11:15:21;;;;;;;14.27;7.10;;;;;;;;;;5016394;28;20021;-70
2022/04/24 11:17:46;;;;;;;9.30;6.53;;;;;;;;;;5012315;28;20036;-70
2022/04/24 11:20:14;;;;;;;8.75;6.93;;;;;;;;;;5012399;28;20118;-70
2022/04/24 11:22:44;;;;;;;11.10;6.97;;;;;;;;;;5011429;28;20022;-70
2022/04/24 11:25:11;;;;;;;23.70;7.70;;;;;;;;;;5023135;28;20018;-70
2022/04/24 11:27:36;;;;;;;10.27;6.57;;;;;;;;;;5011497;28;20034;-70
2022/04/24 11:30:01;;;;;;;9.07;6.07;;;;;;;;;;5006570;28;20045;-70
2022/04/24 11:32:26;;;;;;;11.87;7.47;;;;;;;;;;5020465;28;20052;-70
2022/04/24 11:34:52;;;;;;;10.60;6.80;;;;;;;;;;5014857;28;20276;-70
2022/04/24 11:37:17;;;;;;;11.35;7.13;;;;;;;;;;5011758;28;20386;-70
2022/04/24 11:39:42;;;;;;;10.13;6.40;;;;;;;;;;5017363;28;20044;-70
2022/04/24 11:42:08;;;;;;;11.75;7.60;;;;;;;;;;5015810;28;20018;-71
2022/04/24 11:50:15;;;;;;;14.30;7.05;;;;;;;;;;5011178;28;20452;-69
2022/04/24 11:52:43;;;;;;;14.05;6.63;;;;;;;;;;5016619;28;20017;-70
2022/04/24 11:55:09;;;;;;;9.13;6.55;;;;;;;;;;5009556;28;20109;-70
2022/04/24 11:57:34;;;;;;;10.48;6.82;;;;;;;;;;5016100;28;20104;-69
2022/04/24 12:00:00;;;;;;;10.52;6.57;;;;;;;;;;5009699;28;20133;-70
2022/04/24 12:02:26;;;;;;;10.25;6.80;;;;;;;;;;5011633;28;20030;-69
2022/04/24 12:04:52;;;;;;;9.38;6.53;;;;;;;;;;5008718;28;20038;-69
2022/04/24 12:07:17;;;;;;;8.90;6.90;;;;;;;;;;5009957;28;20389;-69
2022/04/24 12:09:43;;;;;;;9.40;6.63;;;;;;;;;;5018017;28;20037;-69
2022/04/24 12:12:13;;;;;;;11.35;6.78;;;;;;;;;;5014983;28;20650;-70
2022/04/24 12:14:38;;;;;;;14.82;6.75;;;;;;;;;;5010310;28;20064;-70
2022/04/24 12:17:05;;;;;;;11.05;6.80;;;;;;;;;;5010028;28;20057;-70
2022/04/24 12:19:30;;;;;;;11.35;6.63;;;;;;;;;;5010630;28;20133;-70
2022/04/24 12:22:03;;;;;;;14.48;7.60;;;;;;;;;;5020863;28;20101;-69
2022/04/24 12:24:37;;;;;;;10.60;7.13;;;;;;;;;;5007645;28;20504;-69
2022/04/24 12:27:03;;;;;;;9.25;6.70;;;;;;;;;;5007840;28;20017;-70
2022/04/24 12:29:38;;;;;;;11.45;6.13;;;;;;;;;;5011863;28;20026;-69
2022/04/24 12:32:06;;;;;;;8.00;5.60;;;;;;;;;;5004725;28;20089;-69
2022/04/24 12:34:38;;;;;;;9.40;6.22;;;;;;;;;;5007496;28;20028;-69
2022/04/24 12:37:04;;;;;;;7.60;5.88;;;;;;;;;;5011249;28;20021;-69
2022/04/24 12:39:29;;;;;;;11.00;6.40;;;;;;;;;;4991260;28;20109;-70
2022/04/24 12:41:54;;;;;;;10.77;5.50;;;;;;;;;;5015273;28;20338;-70
2022/04/24 12:44:20;;;;;;;8.77;5.72;;;;;;;;;;5013428;28;20273;-69
2022/04/24 12:46:46;;;;;;;7.60;5.55;;;;;;;;;;5009360;28;20374;-70
2022/04/24 12:49:13;;;;;;;7.78;5.15;;;;;;;;;;5008250;28;20025;-70
2022/04/24 12:51:38;;;;;;;10.20;5.47;;;;;;;;;;5013885;28;20096;-69
2022/04/24 12:54:03;;;;;;;10.87;5.63;;;;;;;;;;5009255;28;20105;-69
2022/04/24 12:56:29;;;;;;;6.80;4.97;;;;;;;;;;5003677;28;20454;-69
2022/04/24 12:58:55;;;;;;;9.70;5.65;;;;;;;;;;5012645;28;20272;-69
2022/04/24 13:01:23;;;;;;;7.47;5.07;;;;;;;;;;5006157;28;20022;-69
2022/04/24 13:03:49;;;;;;;11.18;6.03;;;;;;;;;;5006202;28;20038;-69
2022/04/24 13:06:15;;;;;;;6.87;5.03;;;;;;;;;;5000343;28;20405;-69
2022/04/24 13:08:40;;;;;;;8.27;5.15;;;;;;;;;;5000593;28;20359;-69
2022/04/24 13:11:06;;;;;;;14.88;5.30;;;;;;;;;;5001784;28;20537;-69
2022/04/24 13:13:34;;;;;;;9.73;5.67;;;;;;;;;;5009901;28;20017;-69
2022/04/24 13:18:44;;;;;;;9.35;4.90;;;;;;;;;;5000197;28;20459;-69
2022/04/24 13:21:09;;;;;;;9.45;5.03;;;;;;;;;;5005657;28;20088;-70
2022/04/24 13:23:35;;;;;;;12.05;5.47;;;;;;;;;;5015569;28;20032;-68
2022/04/24 13:26:02;;;;;;;9.23;5.38;;;;;;;;;;5013288;28;20029;-70
2022/04/24 13:28:28;;;;;;;6.55;4.35;;;;;;;;;;5000709;28;20022;-70
2022/04/24 13:30:53;;;;;;;7.78;5.75;;;;;;;;;;5002142;28;20476;-70
2022/04/24 13:33:18;;;;;;;11.30;4.90;;;;;;;;;;5001837;28;20026;-70
2022/04/24 13:35:44;;;;;;;10.13;5.13;;;;;;;;;;5001960;28;20285;-70
2022/04/24 13:38:18;;;;;;;9.50;5.47;;;;;;;;;;5002543;28;20026;-70
2022/04/24 13:40:50;;;;;;;7.18;5.38;;;;;;;;;;5007595;28;20026;-70
2022/04/24 13:43:16;;;;;;;7.88;5.30;;;;;;;;;;5010261;28;20139;-70
2022/04/24 13:45:41;;;;;;;7.75;5.30;;;;;;;;;;5008460;28;20037;-69
2022/04/24 13:48:07;;;;;;;9.90;5.30;;;;;;;;;;5013790;28;20021;-70
2022/04/24 13:50:33;;;;;;;6.13;4.95;;;;;;;;;;5010399;28;20273;-69
2022/04/24 13:52:58;;;;;;;7.78;5.35;;;;;;;;;;5011503;28;20389;-69
2022/04/24 13:55:24;;;;;;;6.72;4.53;;;;;;;;;;5010465;28;20029;-70
2022/04/24 13:57:49;;;;;;;6.60;4.70;;;;;;;;;;5011761;28;20057;-70
2022/04/24 14:00:14;;;;;;;6.18;4.85;;;;;;;;;;5017239;28;20033;-70
2022/04/24 14:02:43;;;;;;;8.40;5.30;;;;;;;;;;5005980;28;20050;-70
2022/04/24 14:05:08;;;;;;;7.35;5.20;;;;;;;;;;5015740;28;20022;-70
2022/04/24 14:07:34;;;;;;;9.70;6.05;;;;;;;;;;5010070;28;20027;-70
2022/04/24 14:09:59;;;;;;;7.25;5.07;;;;;;;;;;5009262;28;20050;-71
2022/04/24 14:12:24;;;;;;;9.98;5.32;;;;;;;;;;5006604;28;20343;-69
2022/04/24 14:14:49;;;;;;;8.73;5.37;;;;;;;;;;5005540;28;20496;-70
2022/04/24 14:17:14;;;;;;;8.17;5.27;;;;;;;;;;5005668;28;20282;-70
2022/04/24 14:19:40;;;;;;;13.25;5.50;;;;;;;;;;5008240;28;20188;-69
2022/04/24 14:22:06;;;;;;;7.63;5.80;;;;;;;;;;5007051;28;20021;-70
2022/04/24 14:24:31;;;;;;;9.77;4.93;;;;;;;;;;5012408;28;20466;-70
2022/04/24 14:26:56;;;;;;;9.98;5.03;;;;;;;;;;5019308;28;20022;-69
2022/04/24 14:29:22;;;;;;;15.93;6.10;;;;;;;;;;5017067;28;20017;-70
2022/04/24 14:31:47;;;;;;;13.13;5.30;;;;;;;;;;5009427;28;20013;-70
2022/04/24 14:34:13;;;;;;;10.43;5.75;;;;;;;;;;5009195;28;20025;-70
2022/04/24 14:36:39;;;;;;;12.55;5.93;;;;;;;;;;5013046;28;20022;-70
2022/04/24 14:39:05;;;;;;;10.35;5.55;;;;;;;;;;5018199;28;20026;-70
2022/04/24 14:41:30;;;;;;;11.70;5.30;;;;;;;;;;5007049;28;20101;-70
2022/04/24 14:43:59;;;;;;;10.83;6.03;;;;;;;;;;5007636;28;20098;-70